CDT,Max TemperatureF,Mean TemperatureF,Min TemperatureF,Max Dew PointF,MeanDew PointF,Min DewpointF,Max Humidity, Mean Humidity, Min Humidity, Max Sea Level PressureIn, Mean Sea Level PressureIn, Min Sea Level PressureIn, Max VisibilityMiles, Mean VisibilityMiles, Min VisibilityMiles, Max Wind SpeedMPH, Mean Wind SpeedMPH, Max Gust SpeedMPH,PrecipitationIn, CloudCover, Events, WindDirDegrees
2013-4-1,62,50,37,50,41,32,100,77,45,30.13,30.03,29.92,10,6,0,13,3,,0.00,4,,344
2013-4-2,48,42,35,30,24,19,70,50,32,30.26,30.20,30.13,10,10,10,10,6,,0.00,5,,10
2013-4-3,53,46,39,27,21,18,57,37,28,30.23,30.19,30.14,10,10,10,13,7,,0.00,2,,43
2013-4-4,48,45,42,45,40,23,100,87,37,30.14,30.04,29.98,10,7,1,9,3,,0.00,8,,105
2013-4-5,62,52,42,45,39,32,100,70,32,30.13,30.07,29.99,10,9,3,13,5,,0.00,3,,352
2013-4-6,71,53,35,39,36,34,93,53,27,30.17,30.10,30.03,10,10,10,15,3,,0.00,0,,175
2013-4-7,69,60,51,46,43,36,76,52,40,30.14,30.08,30.03,10,10,9,17,7,21,0.00,0,,186
2013-4-8,75,62,48,55,50,45,87,63,44,30.10,30.04,30.00,10,10,0,22,5,,0.00,2,,183
2013-4-9,78,66,53,59,54,48,88,60,44,30.18,30.09,30.03,10,10,10,16,6,22,0.00,1,,165
2013-4-10,84,73,62,57,54,50,77,54,32,30.10,30.00,29.87,10,10,9,16,6,,0.00,0,,173
2013-4-11,75,66,53,63,57,54,100,75,53,29.88,29.76,29.59,10,9,1,23,10,30,0.00,4,,171
2013-4-12,62,52,42,52,40,37,100,69,39,30.00,29.89,29.72,10,9,2,15,9,,0.00,2,,286
2013-4-13,66,52,39,43,38,36,93,63,32,30.12,30.05,30.00,10,10,10,10,2,,0.00,0,,341
2013-4-14,68,56,44,52,44,36,88,69,30,30.04,29.96,29.89,10,10,2,17,4,30,0.00,3,,146
2013-4-15,78,66,55,57,54,50,94,70,41,30.08,29.99,29.91,10,10,10,12,6,,0.00,2,,173
2013-4-16,78,70,62,64,61,57,88,73,61,30.20,30.15,30.07,10,10,10,13,8,,0.00,3,,160
2013-4-17,84,73,62,66,62,61,94,76,48,30.20,30.13,30.05,10,10,10,14,4,,0.00,3,,172
2013-4-18,78,71,64,61,57,54,88,62,42,30.04,29.93,29.69,10,10,10,21,11,31,0.00,1,,167
2013-4-19,73,53,33,64,41,30,100,78,54,30.14,29.94,29.67,10,8,2,21,13,33,0.00,6,,280
2013-4-20,59,44,30,36,30,27,100,61,31,30.30,30.23,30.14,10,10,0,15,3,,0.00,0,,358
2013-4-21,66,52,39,39,33,28,76,45,26,30.37,30.30,30.24,10,10,10,9,4,,0.00,0,,93
2013-4-22,71,56,42,45,39,36,87,54,27,30.30,30.22,30.13,10,10,10,13,3,,0.00,0,,144
2013-4-23,71,60,48,52,45,36,87,55,39,30.19,30.11,30.03,10,10,10,14,6,24,0.00,0,,167
2013-4-24,64,54,44,57,49,37,100,80,64,30.28,30.10,29.98,10,9,2,22,9,30,0.00,6,,263
2013-4-25,62,52,41,37,33,27,81,57,26,30.38,30.33,30.26,10,10,10,14,6,,0.00,4,,16
2013-4-26,68,52,35,48,39,30,94,63,28,30.41,30.35,30.27,10,9,4,18,3,,0.00,7,,55
2013-4-27,60,55,50,55,52,48,100,92,77,30.34,30.17,30.01,10,7,2,16,7,,0.00,6,,120
2013-4-28,62,60,57,61,58,55,100,95,82,30.01,29.98,29.94,10,9,2,13,7,,0.00,7,,187
2013-4-29,71,61,51,57,54,50,100,81,50,30.05,30.00,29.95,10,9,2,8,2,,0.00,5,,207
2013-4-30,77,62,46,55,50,45,100,68,38,30.08,30.02,29.97,10,10,3,9,1,,0.00,0,,160